Dumas, Texas
Current Conditions -  °F | °C
As of 7:35 AM on Saturday 20 Dec 2014 (Local Time) from KDUX Reporting Station
Haze Haze  
Wind Chill: 23°   Ceiling: 200
Heat Index: 30°   Visibility: 0.75mi
Dew Point: 29°   Wind: 7mph
Humidity: 98%   Direction: 240°WSW
Pressure: 30.1"   Gusts: NA
Location:  35.85°N, 101.97°W
Report Text: KDUX 201335Z AUTO 24006KT 3/4SM BR OVC002 M01/M01 A3010 RMK AO2 T10111014
Loading
Personal Weather Stations






























Interactive Weather Map New forecast layout! Learn more

10-Day Weather Forecast

Advertisements
Track Severe Weather on mobile